Time,TemperatureF,DewpointF,PressureIn,WindDirection,WindDirectionDegrees,WindSpeedMPH,WindSpeedGustMPH,Humidity,HourlyPrecipIn,Conditions,Clouds,dailyrainin,SoftwareType,DateUTC
2013-06-28 00:43:00,69.0,69.0,-100.00,WNW,290,2.0,2.0,99,0.00,,,-99.99,,2013-06-28 04:43:00,
2013-06-28 01:11:00,69.0,69.0,-100.00,SSW,210,2.0,3.0,99,0.00,,,-99.99,,2013-06-28 05:11:00,
2013-06-28 01:22:00,69.0,69.0,-100.00,SW,235,2.0,3.0,99,0.00,,,-99.99,,2013-06-28 05:22:00,
2013-06-28 01:43:00,68.0,68.0,-100.00,SSW,200,2.0,3.0,99,0.00,,,-99.99,,2013-06-28 05:43:00,
2013-06-28 01:53:00,68.0,68.0,-100.00,West,275,2.0,3.0,99,0.00,,,-99.99,,2013-06-28 05:53:00,
2013-06-28 02:02:00,68.0,68.0,-100.00,WSW,245,3.0,4.0,99,0.00,,,-99.99,,2013-06-28 06:02:00,
2013-06-28 02:12:00,68.0,68.0,-100.00,SW,220,1.0,6.0,99,0.00,,,-99.99,,2013-06-28 06:12:00,
2013-06-28 02:33:00,68.0,68.0,-100.00,WSW,245,2.0,3.0,99,0.00,,,-99.99,,2013-06-28 06:33:00,
2013-06-28 02:52:00,68.0,68.0,-100.00,West,270,4.0,5.0,99,0.00,,,-99.99,,2013-06-28 06:52:00,
2013-06-28 03:01:00,69.0,69.0,-100.00,SW,235,4.0,7.0,99,0.00,,,-99.99,,2013-06-28 07:01:00,
2013-06-28 03:11:00,69.0,69.0,-100.00,NW,310,3.0,5.0,99,0.00,,,-99.99,,2013-06-28 07:11:00,
2013-06-28 03:22:00,69.0,69.0,-100.00,West,280,2.0,6.0,99,0.00,,,-99.99,,2013-06-28 07:22:00,
2013-06-28 03:33:00,69.0,69.0,-100.00,West,260,4.0,4.0,99,0.00,,,-99.99,,2013-06-28 07:33:00,
2013-06-28 03:43:00,69.0,69.0,-100.00,WSW,240,2.0,4.0,99,0.00,,,-99.99,,2013-06-28 07:43:00,
2013-06-28 03:52:00,69.0,69.0,-100.00,WSW,245,1.0,4.0,99,0.00,,,-99.99,,2013-06-28 07:52:00,
2013-06-28 04:02:00,69.0,69.0,-100.00,SW,230,2.0,4.0,99,0.00,,,-99.99,,2013-06-28 08:02:00,
2013-06-28 04:11:00,69.0,69.0,-100.00,SW,230,2.0,4.0,99,0.00,,,-99.99,,2013-06-28 08:11:00,
2013-06-28 04:22:00,69.0,69.0,-100.00,WSW,240,1.0,1.0,99,0.00,,,-99.99,,2013-06-28 08:22:00,
2013-06-28 04:43:00,71.0,71.0,-100.00,WNW,295,2.0,3.0,99,0.00,,,-99.99,,2013-06-28 08:43:00,
2013-06-28 04:52:00,71.0,71.0,-100.00,WNW,300,3.0,4.0,99,0.00,,,-99.99,,2013-06-28 08:52:00,
2013-06-28 06:02:00,71.0,71.0,-100.00,NW,310,4.0,7.0,99,0.00,,,-99.99,,2013-06-28 10:02:00,
2013-06-28 06:12:00,71.0,71.0,-100.00,NW,320,3.0,6.0,99,0.00,,,-99.99,,2013-06-28 10:12:00,
2013-06-28 06:22:00,71.0,71.0,-100.00,NW,320,4.0,5.0,99,0.00,,,-99.99,,2013-06-28 10:22:00,
2013-06-28 06:33:00,71.0,71.0,-100.00,NW,305,1.0,5.0,99,0.00,,,-99.99,,2013-06-28 10:33:00,
2013-06-28 06:42:00,71.0,71.0,-100.00,NNW,340,2.0,4.0,99,0.00,,,-99.99,,2013-06-28 10:42:00,
2013-06-28 07:02:00,71.0,71.0,-100.00,WNW,295,2.0,2.0,99,0.00,,,-99.99,,2013-06-28 11:02:00,
2013-06-28 07:11:00,71.0,71.0,-100.00,West,270,2.0,3.0,99,0.00,,,-99.99,,2013-06-28 11:11:00,
2013-06-28 07:22:00,71.0,71.0,-100.00,West,265,4.0,5.0,99,0.00,,,-99.99,,2013-06-28 11:22:00,
2013-06-28 07:34:00,71.0,71.0,-100.00,West,265,4.0,5.0,99,0.00,,,-99.99,,2013-06-28 11:34:00,
2013-06-28 07:43:00,70.0,70.0,-100.00,West,275,4.0,6.0,99,0.00,,,-99.99,,2013-06-28 11:43:00,
2013-06-28 08:02:00,70.0,70.0,-100.00,West,280,6.0,7.0,99,0.00,,,-99.99,,2013-06-28 12:02:00,
2013-06-28 08:43:00,71.0,71.0,-100.00,WNW,295,4.0,6.0,99,0.00,,,-99.99,,2013-06-28 12:43:00,
2013-06-28 09:01:00,71.0,71.0,-100.00,WNW,300,3.0,6.0,99,0.00,,,-99.99,,2013-06-28 13:01:00,
2013-06-28 09:11:00,71.0,71.0,-100.00,West,265,4.0,7.0,99,0.00,,,-99.99,,2013-06-28 13:11:00,
2013-06-28 09:23:00,72.0,71.0,-100.00,West,280,6.0,8.0,97,0.00,,,-99.99,,2013-06-28 13:23:00,
2013-06-28 09:33:00,72.0,71.0,-100.00,West,265,6.0,9.0,95,0.00,,,-99.99,,2013-06-28 13:33:00,
2013-06-28 09:43:00,73.0,71.0,-100.00,West,280,6.0,9.0,93,0.00,,,-99.99,,2013-06-28 13:43:00,
2013-06-28 10:44:00,75.0,68.0,-100.00,WNW,290,7.0,12.0,79,0.00,,,-99.99,,2013-06-28 14:44:00,
2013-06-28 12:44:00,79.0,66.0,-100.00,WNW,295,7.0,14.0,63,0.00,,,-99.99,,2013-06-28 16:44:00,
2013-06-28 13:02:00,80.0,67.0,-100.00,West,280,10.0,15.0,65,0.00,,,-99.99,,2013-06-28 17:02:00,
2013-06-28 13:11:00,80.0,66.0,-100.00,WNW,290,10.0,16.0,63,0.00,,,-99.99,,2013-06-28 17:11:00,
2013-06-28 13:22:00,80.0,67.0,-100.00,West,275,10.0,16.0,65,0.00,,,-99.99,,2013-06-28 17:22:00,
2013-06-28 13:33:00,80.0,66.0,-100.00,WNW,285,8.0,16.0,61,0.00,,,-99.99,,2013-06-28 17:33:00,
2013-06-28 13:44:00,80.0,65.0,-100.00,West,260,11.0,15.0,60,0.00,,,-99.99,,2013-06-28 17:44:00,
2013-06-28 14:11:00,81.0,66.0,-100.00,West,275,12.0,19.0,60,0.00,,,-99.99,,2013-06-28 18:11:00,
2013-06-28 14:22:00,80.0,66.0,-100.00,West,280,12.0,23.0,61,0.00,,,-99.99,,2013-06-28 18:22:00,
2013-06-28 14:33:00,81.0,66.0,-100.00,WNW,285,11.0,16.0,60,0.00,,,-99.99,,2013-06-28 18:33:00,
2013-06-28 14:43:00,81.0,65.0,-100.00,WNW,285,13.0,20.0,58,0.00,,,-99.99,,2013-06-28 18:43:00,
2013-06-28 15:43:00,82.0,65.0,-100.00,West,280,12.0,20.0,56,0.00,,,-99.99,,2013-06-28 19:43:00,
2013-06-28 16:43:00,69.0,65.0,-100.00,NW,325,16.0,25.0,87,-99.99,,,-99.99,,2013-06-28 20:43:00,
2013-06-28 17:02:00,68.0,63.0,-100.00,NNE,15,3.0,14.0,84,0.55,,,-99.99,,2013-06-28 21:02:00,
2013-06-28 17:43:00,71.0,70.0,-100.00,SE,140,2.0,3.0,94,0.00,,,-99.99,,2013-06-28 21:43:00,
2013-06-28 18:01:00,71.0,69.0,-100.00,SE,140,1.0,4.0,94,0.00,,,-99.99,,2013-06-28 22:01:00,
2013-06-28 18:10:00,75.0,70.0,-100.00,SSW,205,2.0,3.0,85,0.00,,,-99.99,,2013-06-28 22:10:00,
2013-06-28 18:43:00,75.0,70.0,-100.00,SSW,205,2.0,3.0,85,0.00,,,-99.99,,2013-06-28 22:43:00,
2013-06-28 18:52:00,75.0,70.0,-100.00,SSW,205,2.0,3.0,85,0.00,,,-99.99,,2013-06-28 22:52:00,
2013-06-28 19:02:00,75.0,70.0,-100.00,SSW,205,2.0,3.0,85,0.00,,,-99.99,,2013-06-28 23:02:00,
2013-06-28 20:33:00,76.0,63.0,-100.00,WNW,300,6.0,13.0,63,0.00,,,-99.99,,2013-06-29 00:33:00,
2013-06-28 20:42:00,76.0,63.0,-100.00,NW,310,6.0,10.0,64,0.00,,,-99.99,,2013-06-29 00:42:00,
2013-06-28 20:52:00,76.0,63.0,-100.00,NW,305,7.0,11.0,64,0.00,,,-99.99,,2013-06-29 00:52:00,
2013-06-28 21:01:00,75.0,64.0,-100.00,NE,40,6.0,12.0,70,0.00,,,-99.99,,2013-06-29 01:01:00,
2013-06-28 21:11:00,72.0,65.0,-100.00,NNE,30,2.0,12.0,79,0.00,,,-99.99,,2013-06-29 01:11:00,
2013-06-28 21:22:00,71.0,65.0,-100.00,NNE,20,4.0,9.0,82,0.00,,,-99.99,,2013-06-29 01:22:00,
2013-06-28 21:32:00,70.0,65.0,-100.00,NE,45,3.0,6.0,83,0.00,,,-99.99,,2013-06-29 01:32:00,
2013-06-28 21:42:00,69.0,64.0,-100.00,NNE,25,1.0,6.0,83,0.00,,,-99.99,,2013-06-29 01:42:00,
2013-06-28 21:51:00,69.0,64.0,-100.00,NNW,345,3.0,4.0,83,0.00,,,-99.99,,2013-06-29 01:51:00,
2013-06-28 22:01:00,68.0,63.0,-100.00,NE,35,2.0,5.0,84,0.00,,,-99.99,,2013-06-29 02:01:00,
2013-06-28 22:11:00,68.0,63.0,-100.00,North,0,1.0,4.0,85,0.00,,,-99.99,,2013-06-29 02:11:00,
2013-06-28 22:21:00,67.0,64.0,-100.00,North,5,0.0,2.0,87,0.00,,,-99.99,,2013-06-29 02:21:00,
2013-06-28 22:31:00,67.0,64.0,-100.00,ENE,75,0.0,1.0,89,0.00,,,-99.99,,2013-06-29 02:31:00,
2013-06-28 22:41:00,67.0,64.0,-100.00,NE,50,0.0,1.0,91,0.00,,,-99.99,,2013-06-29 02:41:00,
2013-06-28 22:51:00,66.0,64.0,-100.00,SE,135,0.0,1.0,93,0.00,,,-99.99,,2013-06-29 02:51:00,
2013-06-28 23:01:00,66.0,64.0,-100.00,SE,130,0.0,0.0,94,0.00,,,-99.99,,2013-06-29 03:01:00,
2013-06-28 23:11:00,66.0,65.0,-100.00,SSW,210,2.0,2.0,96,0.00,,,-99.99,,2013-06-29 03:11:00,
2013-06-28 23:21:00,66.0,65.0,-100.00,SW,220,1.0,2.0,97,0.00,,,-99.99,,2013-06-29 03:21:00,
2013-06-28 23:32:00,65.0,65.0,-100.00,SSW,200,1.0,2.0,97,0.00,,,-99.99,,2013-06-29 03:32:00,
2013-06-28 23:41:00,65.0,64.0,-100.00,NW,305,1.0,1.0,98,0.00,,,-99.99,,2013-06-29 03:41:00,
2013-06-28 23:51:00,65.0,64.0,-100.00,NW,320,1.0,1.0,98,0.00,,,-99.99,,2013-06-29 03:51:00,